sensor_id;sensor_type;location;lat;lon;timestamp;P1;durP1;ratioP1;P2;durP2;ratioP2
3523;SDS011;1776;53.330;11.498;2024-02-16T00:00:01;10.77;;;5.10;;
3523;SDS011;1776;53.330;11.498;2024-02-16T00:02:28;6.80;;;5.33;;
3523;SDS011;1776;53.330;11.498;2024-02-16T00:04:53;7.60;;;5.37;;
3523;SDS011;1776;53.330;11.498;2024-02-16T00:07:19;5.93;;;5.20;;
3523;SDS011;1776;53.330;11.498;2024-02-16T00:09:44;7.53;;;4.90;;
3523;SDS011;1776;53.330;11.498;2024-02-16T00:12:09;5.27;;;4.67;;
3523;SDS011;1776;53.330;11.498;2024-02-16T00:14:35;7.83;;;4.00;;
3523;SDS011;1776;53.330;11.498;2024-02-16T00:17:00;6.73;;;3.80;;
3523;SDS011;1776;53.330;11.498;2024-02-16T00:19:25;5.90;;;3.90;;
3523;SDS011;1776;53.330;11.498;2024-02-16T00:21:51;4.60;;;4.20;;
3523;SDS011;1776;53.330;11.498;2024-02-16T00:24:17;6.30;;;4.20;;
3523;SDS011;1776;53.330;11.498;2024-02-16T00:26:42;5.07;;;4.23;;
3523;SDS011;1776;53.330;11.498;2024-02-16T00:29:10;13.90;;;4.80;;
3523;SDS011;1776;53.330;11.498;2024-02-16T00:31:35;4.27;;;3.87;;
3523;SDS011;1776;53.330;11.498;2024-02-16T00:34:00;5.20;;;4.37;;
3523;SDS011;1776;53.330;11.498;2024-02-16T00:36:26;5.33;;;4.93;;
3523;SDS011;1776;53.330;11.498;2024-02-16T00:38:52;11.10;;;4.50;;
3523;SDS011;1776;53.330;11.498;2024-02-16T00:41:21;5.70;;;4.67;;
3523;SDS011;1776;53.330;11.498;2024-02-16T00:43:48;8.20;;;4.80;;
3523;SDS011;1776;53.330;11.498;2024-02-16T00:46:14;7.80;;;5.27;;
3523;SDS011;1776;53.330;11.498;2024-02-16T00:48:39;7.03;;;4.80;;
3523;SDS011;1776;53.330;11.498;2024-02-16T00:51:05;8.20;;;5.63;;
3523;SDS011;1776;53.330;11.498;2024-02-16T00:53:30;9.40;;;5.30;;
3523;SDS011;1776;53.330;11.498;2024-02-16T00:55:55;10.40;;;5.33;;
3523;SDS011;1776;53.330;11.498;2024-02-16T00:58:20;6.13;;;5.53;;
3523;SDS011;1776;53.330;11.498;2024-02-16T01:00:46;6.83;;;5.53;;
3523;SDS011;1776;53.330;11.498;2024-02-16T01:03:11;8.03;;;5.10;;
3523;SDS011;1776;53.330;11.498;2024-02-16T01:05:37;7.37;;;5.50;;
3523;SDS011;1776;53.330;11.498;2024-02-16T01:08:05;5.37;;;4.40;;
3523;SDS011;1776;53.330;11.498;2024-02-16T01:10:30;8.07;;;5.10;;
3523;SDS011;1776;53.330;11.498;2024-02-16T01:12:56;9.50;;;5.97;;
3523;SDS011;1776;53.330;11.498;2024-02-16T01:15:21;7.53;;;5.37;;
3523;SDS011;1776;53.330;11.498;2024-02-16T01:17:46;8.60;;;5.33;;
3523;SDS011;1776;53.330;11.498;2024-02-16T01:20:12;7.30;;;5.03;;
3523;SDS011;1776;53.330;11.498;2024-02-16T01:22:37;5.70;;;4.90;;
3523;SDS011;1776;53.330;11.498;2024-02-16T01:25:04;5.10;;;4.23;;
3523;SDS011;1776;53.330;11.498;2024-02-16T01:27:29;5.03;;;4.53;;
3523;SDS011;1776;53.330;11.498;2024-02-16T01:29:55;7.10;;;4.60;;
3523;SDS011;1776;53.330;11.498;2024-02-16T01:32:20;6.20;;;4.57;;
3523;SDS011;1776;53.330;11.498;2024-02-16T01:34:45;11.23;;;5.00;;
3523;SDS011;1776;53.330;11.498;2024-02-16T01:37:13;5.63;;;4.30;;
3523;SDS011;1776;53.330;11.498;2024-02-16T01:39:39;5.90;;;5.30;;
3523;SDS011;1776;53.330;11.498;2024-02-16T01:42:04;7.23;;;4.40;;
3523;SDS011;1776;53.330;11.498;2024-02-16T01:44:29;10.50;;;4.83;;
3523;SDS011;1776;53.330;11.498;2024-02-16T01:46:55;7.07;;;4.40;;
3523;SDS011;1776;53.330;11.498;2024-02-16T01:49:20;6.53;;;4.87;;
3523;SDS011;1776;53.330;11.498;2024-02-16T01:51:46;5.23;;;4.30;;
3523;SDS011;1776;53.330;11.498;2024-02-16T01:54:12;6.90;;;4.47;;
3523;SDS011;1776;53.330;11.498;2024-02-16T01:56:37;4.83;;;4.33;;
3523;SDS011;1776;53.330;11.498;2024-02-16T01:59:03;4.37;;;3.90;;
3523;SDS011;1776;53.330;11.498;2024-02-16T02:01:28;5.97;;;3.77;;
3523;SDS011;1776;53.330;11.498;2024-02-16T02:03:53;5.27;;;3.93;;
3523;SDS011;1776;53.330;11.498;2024-02-16T02:06:18;5.10;;;4.07;;
3523;SDS011;1776;53.330;11.498;2024-02-16T02:08:44;4.20;;;3.77;;
3523;SDS011;1776;53.330;11.498;2024-02-16T02:11:09;8.97;;;4.60;;
3523;SDS011;1776;53.330;11.498;2024-02-16T02:13:34;7.17;;;4.27;;
3523;SDS011;1776;53.330;11.498;2024-02-16T02:16:00;4.20;;;3.80;;
3523;SDS011;1776;53.330;11.498;2024-02-16T02:18:28;5.73;;;4.33;;
3523;SDS011;1776;53.330;11.498;2024-02-16T02:20:53;4.50;;;4.00;;
3523;SDS011;1776;53.330;11.498;2024-02-16T02:23:19;5.50;;;4.30;;
3523;SDS011;1776;53.330;11.498;2024-02-16T02:25:44;9.23;;;5.00;;
3523;SDS011;1776;53.330;11.498;2024-02-16T02:28:10;6.77;;;4.60;;
3523;SDS011;1776;53.330;11.498;2024-02-16T02:30:35;8.53;;;4.87;;
3523;SDS011;1776;53.330;11.498;2024-02-16T02:33:02;5.93;;;4.33;;
3523;SDS011;1776;53.330;11.498;2024-02-16T02:35:28;7.40;;;5.10;;
3523;SDS011;1776;53.330;11.498;2024-02-16T02:37:53;6.30;;;4.50;;
3523;SDS011;1776;53.330;11.498;2024-02-16T02:40:19;6.80;;;4.23;;
3523;SDS011;1776;53.330;11.498;2024-02-16T02:42:44;4.50;;;4.10;;
3523;SDS011;1776;53.330;11.498;2024-02-16T02:45:09;8.10;;;3.93;;
3523;SDS011;1776;53.330;11.498;2024-02-16T02:47:35;4.63;;;4.03;;
3523;SDS011;1776;53.330;11.498;2024-02-16T02:50:00;5.00;;;3.70;;
3523;SDS011;1776;53.330;11.498;2024-02-16T02:52:25;9.00;;;4.40;;
3523;SDS011;1776;53.330;11.498;2024-02-16T02:54:51;5.57;;;4.10;;
3523;SDS011;1776;53.330;11.498;2024-02-16T02:57:16;7.63;;;4.50;;
3523;SDS011;1776;53.330;11.498;2024-02-16T02:59:41;7.67;;;5.50;;
3523;SDS011;1776;53.330;11.498;2024-02-16T03:02:07;6.10;;;4.93;;
3523;SDS011;1776;53.330;11.498;2024-02-16T03:04:34;5.53;;;3.93;;
3523;SDS011;1776;53.330;11.498;2024-02-16T03:06:59;5.63;;;5.00;;
3523;SDS011;1776;53.330;11.498;2024-02-16T03:09:25;9.53;;;5.67;;
3523;SDS011;1776;53.330;11.498;2024-02-16T03:11:51;7.50;;;4.87;;
3523;SDS011;1776;53.330;11.498;2024-02-16T03:14:16;7.63;;;5.77;;
3523;SDS011;1776;53.330;11.498;2024-02-16T03:16:42;6.53;;;4.20;;
3523;SDS011;1776;53.330;11.498;2024-02-16T03:19:08;7.80;;;4.83;;
3523;SDS011;1776;53.330;11.498;2024-02-16T03:21:36;9.60;;;5.40;;
3523;SDS011;1776;53.330;11.498;2024-02-16T03:24:02;5.80;;;4.70;;
3523;SDS011;1776;53.330;11.498;2024-02-16T03:26:29;6.23;;;5.10;;
3523;SDS011;1776;53.330;11.498;2024-02-16T03:28:54;7.40;;;4.80;;
3523;SDS011;1776;53.330;11.498;2024-02-16T03:31:21;7.57;;;4.77;;
3523;SDS011;1776;53.330;11.498;2024-02-16T03:33:48;6.03;;;5.20;;
3523;SDS011;1776;53.330;11.498;2024-02-16T03:36:14;8.93;;;4.87;;
3523;SDS011;1776;53.330;11.498;2024-02-16T03:38:41;7.87;;;5.20;;
3523;SDS011;1776;53.330;11.498;2024-02-16T03:41:17;10.27;;;5.63;;
3523;SDS011;1776;53.330;11.498;2024-02-16T03:43:47;4.57;;;4.13;;
3523;SDS011;1776;53.330;11.498;2024-02-16T03:46:12;9.80;;;5.07;;
3523;SDS011;1776;53.330;11.498;2024-02-16T03:48:38;10.77;;;5.80;;
3523;SDS011;1776;53.330;11.498;2024-02-16T03:51:04;8.70;;;4.80;;
3523;SDS011;1776;53.330;11.498;2024-02-16T03:53:29;5.57;;;4.63;;
3523;SDS011;1776;53.330;11.498;2024-02-16T03:55:54;10.73;;;5.27;;
3523;SDS011;1776;53.330;11.498;2024-02-16T03:58:21;8.03;;;5.80;;
3523;SDS011;1776;53.330;11.498;2024-02-16T04:00:46;9.13;;;5.50;;
3523;SDS011;1776;53.330;11.498;2024-02-16T04:03:13;7.97;;;4.47;;
3523;SDS011;1776;53.330;11.498;2024-02-16T04:05:39;6.40;;;4.47;;
3523;SDS011;1776;53.330;11.498;2024-02-16T04:08:04;6.43;;;5.33;;
3523;SDS011;1776;53.330;11.498;2024-02-16T04:10:31;6.90;;;5.00;;
3523;SDS011;1776;53.330;11.498;2024-02-16T04:12:56;6.67;;;5.00;;
3523;SDS011;1776;53.330;11.498;2024-02-16T04:15:22;6.87;;;4.63;;
3523;SDS011;1776;53.330;11.498;2024-02-16T04:17:47;6.93;;;5.30;;
3523;SDS011;1776;53.330;11.498;2024-02-16T04:20:14;11.17;;;4.90;;
3523;SDS011;1776;53.330;11.498;2024-02-16T04:22:41;10.63;;;5.20;;
3523;SDS011;1776;53.330;11.498;2024-02-16T04:25:06;6.80;;;5.00;;
3523;SDS011;1776;53.330;11.498;2024-02-16T04:27:31;11.70;;;5.50;;
3523;SDS011;1776;53.330;11.498;2024-02-16T04:29:57;9.70;;;5.53;;
3523;SDS011;1776;53.330;11.498;2024-02-16T04:32:22;11.40;;;5.63;;
3523;SDS011;1776;53.330;11.498;2024-02-16T04:34:50;5.30;;;4.80;;
3523;SDS011;1776;53.330;11.498;2024-02-16T04:37:17;6.40;;;5.33;;
3523;SDS011;1776;53.330;11.498;2024-02-16T04:39:43;6.53;;;4.90;;
3523;SDS011;1776;53.330;11.498;2024-02-16T04:42:09;12.03;;;5.10;;
3523;SDS011;1776;53.330;11.498;2024-02-16T04:44:36;9.20;;;5.77;;
3523;SDS011;1776;53.330;11.498;2024-02-16T04:47:05;9.90;;;5.50;;
3523;SDS011;1776;53.330;11.498;2024-02-16T04:49:31;7.10;;;5.80;;
3523;SDS011;1776;53.330;11.498;2024-02-16T04:51:57;6.00;;;4.83;;
3523;SDS011;1776;53.330;11.498;2024-02-16T04:54:23;6.27;;;4.90;;
3523;SDS011;1776;53.330;11.498;2024-02-16T04:56:49;7.73;;;4.90;;
3523;SDS011;1776;53.330;11.498;2024-02-16T04:59:15;8.43;;;5.43;;
3523;SDS011;1776;53.330;11.498;2024-02-16T05:01:40;13.60;;;5.53;;
3523;SDS011;1776;53.330;11.498;2024-02-16T05:04:05;7.97;;;5.50;;
3523;SDS011;1776;53.330;11.498;2024-02-16T05:06:31;9.00;;;5.67;;
3523;SDS011;1776;53.330;11.498;2024-02-16T05:08:57;6.57;;;5.63;;
3523;SDS011;1776;53.330;11.498;2024-02-16T05:11:23;7.03;;;5.50;;
3523;SDS011;1776;53.330;11.498;2024-02-16T05:13:49;8.73;;;5.03;;
3523;SDS011;1776;53.330;11.498;2024-02-16T05:16:15;6.17;;;5.57;;
3523;SDS011;1776;53.330;11.498;2024-02-16T05:18:40;5.87;;;5.10;;
3523;SDS011;1776;53.330;11.498;2024-02-16T05:21:05;8.37;;;6.17;;
3523;SDS011;1776;53.330;11.498;2024-02-16T05:23:31;10.50;;;5.10;;
3523;SDS011;1776;53.330;11.498;2024-02-16T05:25:56;8.60;;;5.13;;
3523;SDS011;1776;53.330;11.498;2024-02-16T05:28:21;8.23;;;5.80;;
3523;SDS011;1776;53.330;11.498;2024-02-16T05:30:47;8.37;;;5.30;;
3523;SDS011;1776;53.330;11.498;2024-02-16T05:33:12;10.40;;;5.10;;
3523;SDS011;1776;53.330;11.498;2024-02-16T05:35:39;5.77;;;4.80;;
3523;SDS011;1776;53.330;11.498;2024-02-16T05:38:06;6.90;;;6.20;;
3523;SDS011;1776;53.330;11.498;2024-02-16T05:40:46;6.60;;;5.80;;
3523;SDS011;1776;53.330;11.498;2024-02-16T05:43:19;8.37;;;5.40;;
3523;SDS011;1776;53.330;11.498;2024-02-16T05:45:45;8.23;;;6.83;;
3523;SDS011;1776;53.330;11.498;2024-02-16T05:48:11;6.10;;;4.83;;
3523;SDS011;1776;53.330;11.498;2024-02-16T05:50:36;9.00;;;5.57;;
3523;SDS011;1776;53.330;11.498;2024-02-16T05:53:02;13.00;;;6.60;;
3523;SDS011;1776;53.330;11.498;2024-02-16T05:55:27;7.60;;;4.73;;
3523;SDS011;1776;53.330;11.498;2024-02-16T05:57:52;9.77;;;5.37;;
3523;SDS011;1776;53.330;11.498;2024-02-16T06:00:18;6.33;;;4.97;;
3523;SDS011;1776;53.330;11.498;2024-02-16T06:02:46;8.73;;;5.73;;
3523;SDS011;1776;53.330;11.498;2024-02-16T06:05:12;5.80;;;5.20;;
3523;SDS011;1776;53.330;11.498;2024-02-16T06:07:37;8.87;;;5.77;;
3523;SDS011;1776;53.330;11.498;2024-02-16T06:10:03;10.73;;;5.50;;
3523;SDS011;1776;53.330;11.498;2024-02-16T06:12:32;9.57;;;5.87;;
3523;SDS011;1776;53.330;11.498;2024-02-16T06:14:57;8.77;;;5.40;;
3523;SDS011;1776;53.330;11.498;2024-02-16T06:17:22;6.20;;;5.10;;
3523;SDS011;1776;53.330;11.498;2024-02-16T06:19:48;11.90;;;7.83;;
3523;SDS011;1776;53.330;11.498;2024-02-16T06:22:13;7.70;;;6.03;;
3523;SDS011;1776;53.330;11.498;2024-02-16T06:24:39;7.43;;;4.90;;
3523;SDS011;1776;53.330;11.498;2024-02-16T06:27:05;9.23;;;5.73;;
3523;SDS011;1776;53.330;11.498;2024-02-16T06:29:30;8.93;;;5.07;;
3523;SDS011;1776;53.330;11.498;2024-02-16T06:31:55;9.40;;;5.33;;
3523;SDS011;1776;53.330;11.498;2024-02-16T06:34:21;6.60;;;4.60;;
3523;SDS011;1776;53.330;11.498;2024-02-16T06:36:46;7.07;;;5.10;;
3523;SDS011;1776;53.330;11.498;2024-02-16T06:39:11;10.30;;;4.93;;
3523;SDS011;1776;53.330;11.498;2024-02-16T06:41:41;12.33;;;4.90;;
3523;SDS011;1776;53.330;11.498;2024-02-16T06:44:08;12.30;;;5.20;;
3523;SDS011;1776;53.330;11.498;2024-02-16T06:46:34;9.23;;;4.77;;
3523;SDS011;1776;53.330;11.498;2024-02-16T06:48:59;9.90;;;5.23;;
3523;SDS011;1776;53.330;11.498;2024-02-16T06:51:24;5.37;;;4.50;;
3523;SDS011;1776;53.330;11.498;2024-02-16T06:53:51;8.00;;;5.03;;
3523;SDS011;1776;53.330;11.498;2024-02-16T06:56:17;12.80;;;6.60;;
3523;SDS011;1776;53.330;11.498;2024-02-16T06:58:43;9.37;;;5.10;;
3523;SDS011;1776;53.330;11.498;2024-02-16T07:01:08;9.27;;;5.40;;
3523;SDS011;1776;53.330;11.498;2024-02-16T07:03:34;7.83;;;5.40;;
3523;SDS011;1776;53.330;11.498;2024-02-16T07:06:01;9.27;;;5.60;;
3523;SDS011;1776;53.330;11.498;2024-02-16T07:08:27;5.00;;;4.37;;
3523;SDS011;1776;53.330;11.498;2024-02-16T07:10:53;6.87;;;4.40;;
3523;SDS011;1776;53.330;11.498;2024-02-16T07:13:18;5.30;;;4.53;;
3523;SDS011;1776;53.330;11.498;2024-02-16T07:15:44;5.90;;;4.90;;
3523;SDS011;1776;53.330;11.498;2024-02-16T07:18:09;6.60;;;4.70;;
3523;SDS011;1776;53.330;11.498;2024-02-16T07:20:34;10.13;;;5.10;;
3523;SDS011;1776;53.330;11.498;2024-02-16T07:23:01;10.77;;;4.70;;
3523;SDS011;1776;53.330;11.498;2024-02-16T07:25:27;7.00;;;5.00;;
3523;SDS011;1776;53.330;11.498;2024-02-16T07:27:53;8.30;;;5.60;;
3523;SDS011;1776;53.330;11.498;2024-02-16T07:30:18;5.90;;;4.63;;
3523;SDS011;1776;53.330;11.498;2024-02-16T07:32:47;8.60;;;4.63;;
3523;SDS011;1776;53.330;11.498;2024-02-16T07:35:17;7.30;;;4.17;;
3523;SDS011;1776;53.330;11.498;2024-02-16T07:37:43;7.73;;;4.20;;
3523;SDS011;1776;53.330;11.498;2024-02-16T07:40:08;8.40;;;4.80;;
3523;SDS011;1776;53.330;11.498;2024-02-16T07:42:37;6.13;;;3.53;;
3523;SDS011;1776;53.330;11.498;2024-02-16T07:45:03;4.37;;;3.97;;
3523;SDS011;1776;53.330;11.498;2024-02-16T07:47:29;7.70;;;5.37;;
3523;SDS011;1776;53.330;11.498;2024-02-16T07:49:56;5.00;;;3.70;;
3523;SDS011;1776;53.330;11.498;2024-02-16T07:52:21;9.13;;;3.83;;
3523;SDS011;1776;53.330;11.498;2024-02-16T07:54:47;5.10;;;4.37;;
3523;SDS011;1776;53.330;11.498;2024-02-16T07:57:12;8.63;;;4.73;;
3523;SDS011;1776;53.330;11.498;2024-02-16T07:59:37;8.10;;;5.00;;
3523;SDS011;1776;53.330;11.498;2024-02-16T08:02:02;9.83;;;4.80;;
3523;SDS011;1776;53.330;11.498;2024-02-16T08:04:28;7.17;;;4.20;;
3523;SDS011;1776;53.330;11.498;2024-02-16T08:06:53;5.67;;;4.20;;
3523;SDS011;1776;53.330;11.498;2024-02-16T08:09:18;4.83;;;3.53;;
3523;SDS011;1776;53.330;11.498;2024-02-16T08:11:44;6.63;;;3.67;;
3523;SDS011;1776;53.330;11.498;2024-02-16T08:14:09;5.17;;;4.10;;
3523;SDS011;1776;53.330;11.498;2024-02-16T08:16:34;4.50;;;4.10;;
3523;SDS011;1776;53.330;11.498;2024-02-16T08:19:00;10.50;;;4.43;;
3523;SDS011;1776;53.330;11.498;2024-02-16T08:21:25;6.13;;;4.90;;
3523;SDS011;1776;53.330;11.498;2024-02-16T08:23:50;4.23;;;3.60;;
3523;SDS011;1776;53.330;11.498;2024-02-16T08:26:15;9.87;;;4.53;;
3523;SDS011;1776;53.330;11.498;2024-02-16T08:28:43;5.47;;;3.73;;
3523;SDS011;1776;53.330;11.498;2024-02-16T08:31:09;5.60;;;4.07;;
3523;SDS011;1776;53.330;11.498;2024-02-16T08:33:35;5.10;;;4.50;;
3523;SDS011;1776;53.330;11.498;2024-02-16T08:36:02;4.77;;;4.33;;
3523;SDS011;1776;53.330;11.498;2024-02-16T08:38:30;5.63;;;3.80;;
3523;SDS011;1776;53.330;11.498;2024-02-16T08:40:56;6.70;;;3.73;;
3523;SDS011;1776;53.330;11.498;2024-02-16T08:43:21;8.40;;;4.80;;
3523;SDS011;1776;53.330;11.498;2024-02-16T08:45:47;9.03;;;3.97;;
3523;SDS011;1776;53.330;11.498;2024-02-16T08:48:12;9.60;;;4.37;;
3523;SDS011;1776;53.330;11.498;2024-02-16T08:50:37;7.97;;;4.10;;
3523;SDS011;1776;53.330;11.498;2024-02-16T08:53:02;6.67;;;3.20;;
3523;SDS011;1776;53.330;11.498;2024-02-16T08:55:28;5.80;;;4.13;;
3523;SDS011;1776;53.330;11.498;2024-02-16T08:57:53;2.73;;;2.53;;
3523;SDS011;1776;53.330;11.498;2024-02-16T09:00:18;6.23;;;3.40;;
3523;SDS011;1776;53.330;11.498;2024-02-16T09:02:44;4.80;;;3.00;;
3523;SDS011;1776;53.330;11.498;2024-02-16T09:05:11;3.30;;;3.00;;
3523;SDS011;1776;53.330;11.498;2024-02-16T09:07:36;3.83;;;3.43;;
3523;SDS011;1776;53.330;11.498;2024-02-16T09:10:02;7.17;;;3.63;;
3523;SDS011;1776;53.330;11.498;2024-02-16T09:12:27;6.00;;;3.70;;
3523;SDS011;1776;53.330;11.498;2024-02-16T09:14:52;10.20;;;4.10;;
3523;SDS011;1776;53.330;11.498;2024-02-16T09:17:18;7.47;;;3.53;;
3523;SDS011;1776;53.330;11.498;2024-02-16T09:19:45;8.53;;;3.33;;
3523;SDS011;1776;53.330;11.498;2024-02-16T09:22:10;4.43;;;3.10;;
3523;SDS011;1776;53.330;11.498;2024-02-16T09:24:35;4.50;;;3.40;;
3523;SDS011;1776;53.330;11.498;2024-02-16T09:27:02;5.87;;;2.93;;
3523;SDS011;1776;53.330;11.498;2024-02-16T09:29:29;5.67;;;3.43;;
3523;SDS011;1776;53.330;11.498;2024-02-16T09:31:55;6.10;;;2.80;;
3523;SDS011;1776;53.330;11.498;2024-02-16T09:34:20;9.80;;;3.30;;
3523;SDS011;1776;53.330;11.498;2024-02-16T09:36:45;5.97;;;3.63;;
3523;SDS011;1776;53.330;11.498;2024-02-16T09:39:11;3.17;;;2.83;;
3523;SDS011;1776;53.330;11.498;2024-02-16T09:41:36;5.10;;;3.27;;
3523;SDS011;1776;53.330;11.498;2024-02-16T09:44:06;6.77;;;3.17;;
3523;SDS011;1776;53.330;11.498;2024-02-16T09:46:31;6.00;;;2.70;;
3523;SDS011;1776;53.330;11.498;2024-02-16T09:49:01;3.57;;;3.20;;
3523;SDS011;1776;53.330;11.498;2024-02-16T09:51:28;7.53;;;3.00;;
3523;SDS011;1776;53.330;11.498;2024-02-16T09:53:54;2.70;;;2.50;;
3523;SDS011;1776;53.330;11.498;2024-02-16T09:56:22;2.87;;;2.67;;
3523;SDS011;1776;53.330;11.498;2024-02-16T09:58:49;5.63;;;2.40;;
3523;SDS011;1776;53.330;11.498;2024-02-16T10:01:17;2.70;;;2.50;;
3523;SDS011;1776;53.330;11.498;2024-02-16T10:03:44;4.97;;;2.50;;
3523;SDS011;1776;53.330;11.498;2024-02-16T10:06:10;8.90;;;3.93;;
3523;SDS011;1776;53.330;11.498;2024-02-16T10:08:49;4.17;;;2.80;;
3523;SDS011;1776;53.330;11.498;2024-02-16T10:11:19;5.50;;;3.00;;
3523;SDS011;1776;53.330;11.498;2024-02-16T10:13:55;6.30;;;3.00;;
3523;SDS011;1776;53.330;11.498;2024-02-16T10:16:21;6.03;;;2.80;;
3523;SDS011;1776;53.330;11.498;2024-02-16T10:18:47;7.03;;;3.57;;
3523;SDS011;1776;53.330;11.498;2024-02-16T10:21:12;2.87;;;2.53;;
3523;SDS011;1776;53.330;11.498;2024-02-16T10:23:38;6.27;;;3.70;;
3523;SDS011;1776;53.330;11.498;2024-02-16T10:26:03;3.60;;;2.40;;
3523;SDS011;1776;53.330;11.498;2024-02-16T10:28:28;4.80;;;2.20;;
3523;SDS011;1776;53.330;11.498;2024-02-16T10:30:59;4.70;;;2.30;;
3523;SDS011;1776;53.330;11.498;2024-02-16T10:33:26;3.60;;;2.67;;
3523;SDS011;1776;53.330;11.498;2024-02-16T10:35:53;4.67;;;2.87;;
3523;SDS011;1776;53.330;11.498;2024-02-16T10:38:21;3.80;;;2.70;;
3523;SDS011;1776;53.330;11.498;2024-02-16T10:40:47;4.00;;;2.40;;
3523;SDS011;1776;53.330;11.498;2024-02-16T10:43:13;3.40;;;2.73;;
3523;SDS011;1776;53.330;11.498;2024-02-16T10:45:40;5.93;;;3.30;;
3523;SDS011;1776;53.330;11.498;2024-02-16T10:48:06;5.40;;;3.10;;
3523;SDS011;1776;53.330;11.498;2024-02-16T10:50:33;6.20;;;2.63;;
3523;SDS011;1776;53.330;11.498;2024-02-16T10:53:02;5.37;;;3.33;;
3523;SDS011;1776;53.330;11.498;2024-02-16T10:55:31;4.40;;;2.73;;
3523;SDS011;1776;53.330;11.498;2024-02-16T10:57:57;3.10;;;2.53;;
3523;SDS011;1776;53.330;11.498;2024-02-16T11:00:24;4.00;;;2.37;;
3523;SDS011;1776;53.330;11.498;2024-02-16T11:02:55;8.53;;;2.57;;
3523;SDS011;1776;53.330;11.498;2024-02-16T11:05:36;4.83;;;2.27;;
3523;SDS011;1776;53.330;11.498;2024-02-16T11:08:11;5.03;;;2.73;;
3523;SDS011;1776;53.330;11.498;2024-02-16T11:10:38;5.37;;;2.50;;
3523;SDS011;1776;53.330;11.498;2024-02-16T11:13:04;2.73;;;2.30;;
3523;SDS011;1776;53.330;11.498;2024-02-16T11:15:30;8.63;;;3.00;;
3523;SDS011;1776;53.330;11.498;2024-02-16T11:17:57;9.13;;;3.53;;
3523;SDS011;1776;53.330;11.498;2024-02-16T11:20:25;4.77;;;2.17;;
3523;SDS011;1776;53.330;11.498;2024-02-16T11:22:51;4.27;;;2.20;;
3523;SDS011;1776;53.330;11.498;2024-02-16T11:25:17;3.43;;;1.83;;
3523;SDS011;1776;53.330;11.498;2024-02-16T11:27:42;6.40;;;2.40;;
3523;SDS011;1776;53.330;11.498;2024-02-16T11:30:10;5.27;;;2.70;;
3523;SDS011;1776;53.330;11.498;2024-02-16T11:32:36;5.47;;;2.53;;
3523;SDS011;1776;53.330;11.498;2024-02-16T11:35:05;6.80;;;2.43;;
3523;SDS011;1776;53.330;11.498;2024-02-16T11:37:31;3.97;;;2.27;;
3523;SDS011;1776;53.330;11.498;2024-02-16T11:39:57;4.80;;;2.00;;
3523;SDS011;1776;53.330;11.498;2024-02-16T11:42:23;5.00;;;2.50;;
3523;SDS011;1776;53.330;11.498;2024-02-16T11:44:52;5.20;;;2.87;;
3523;SDS011;1776;53.330;11.498;2024-02-16T11:47:19;3.53;;;2.03;;
3523;SDS011;1776;53.330;11.498;2024-02-16T11:49:58;2.80;;;2.13;;
3523;SDS011;1776;53.330;11.498;2024-02-16T11:52:25;4.70;;;2.90;;
3523;SDS011;1776;53.330;11.498;2024-02-16T11:54:50;2.63;;;1.93;;
3523;SDS011;1776;53.330;11.498;2024-02-16T11:57:15;4.33;;;2.03;;
3523;SDS011;1776;53.330;11.498;2024-02-16T11:59:40;4.73;;;2.47;;
3523;SDS011;1776;53.330;11.498;2024-02-16T12:02:06;4.20;;;2.10;;
3523;SDS011;1776;53.330;11.498;2024-02-16T12:04:31;4.70;;;2.80;;
3523;SDS011;1776;53.330;11.498;2024-02-16T12:07:00;5.20;;;2.63;;
3523;SDS011;1776;53.330;11.498;2024-02-16T12:09:27;4.80;;;2.17;;
3523;SDS011;1776;53.330;11.498;2024-02-16T12:11:53;5.27;;;2.50;;
3523;SDS011;1776;53.330;11.498;2024-02-16T12:14:21;4.20;;;2.47;;
3523;SDS011;1776;53.330;11.498;2024-02-16T12:16:55;2.87;;;2.57;;
3523;SDS011;1776;53.330;11.498;2024-02-16T12:19:21;4.60;;;2.60;;
3523;SDS011;1776;53.330;11.498;2024-02-16T12:21:53;3.57;;;2.13;;
3523;SDS011;1776;53.330;11.498;2024-02-16T12:24:22;2.77;;;2.07;;
3523;SDS011;1776;53.330;11.498;2024-02-16T12:26:48;3.10;;;2.27;;
3523;SDS011;1776;53.330;11.498;2024-02-16T12:29:13;4.83;;;2.50;;
3523;SDS011;1776;53.330;11.498;2024-02-16T12:31:39;4.43;;;2.43;;
3523;SDS011;1776;53.330;11.498;2024-02-16T12:34:08;4.10;;;2.03;;
3523;SDS011;1776;53.330;11.498;2024-02-16T12:36:34;3.50;;;2.77;;
3523;SDS011;1776;53.330;11.498;2024-02-16T12:39:00;3.50;;;2.03;;
3523;SDS011;1776;53.330;11.498;2024-02-16T12:41:25;2.73;;;2.20;;
3523;SDS011;1776;53.330;11.498;2024-02-16T12:43:51;2.63;;;2.30;;
3523;SDS011;1776;53.330;11.498;2024-02-16T12:46:16;3.63;;;2.80;;
3523;SDS011;1776;53.330;11.498;2024-02-16T12:48:41;4.57;;;2.57;;
3523;SDS011;1776;53.330;11.498;2024-02-16T12:51:07;2.97;;;2.10;;
3523;SDS011;1776;53.330;11.498;2024-02-16T12:53:32;3.53;;;2.33;;
3523;SDS011;1776;53.330;11.498;2024-02-16T12:56:05;4.43;;;2.50;;
3523;SDS011;1776;53.330;11.498;2024-02-16T12:58:37;3.50;;;1.93;;
3523;SDS011;1776;53.330;11.498;2024-02-16T13:01:03;3.63;;;2.47;;
3523;SDS011;1776;53.330;11.498;2024-02-16T13:03:31;7.50;;;2.80;;
3523;SDS011;1776;53.330;11.498;2024-02-16T13:05:58;4.00;;;2.90;;
3523;SDS011;1776;53.330;11.498;2024-02-16T13:08:24;5.40;;;2.63;;
3523;SDS011;1776;53.330;11.498;2024-02-16T13:10:49;5.30;;;2.50;;
3523;SDS011;1776;53.330;11.498;2024-02-16T13:13:14;5.03;;;2.37;;
3523;SDS011;1776;53.330;11.498;2024-02-16T13:15:39;3.30;;;2.77;;
3523;SDS011;1776;53.330;11.498;2024-02-16T13:18:05;2.33;;;2.13;;
3523;SDS011;1776;53.330;11.498;2024-02-16T13:20:30;3.17;;;2.57;;
3523;SDS011;1776;53.330;11.498;2024-02-16T13:22:55;7.20;;;2.60;;
3523;SDS011;1776;53.330;11.498;2024-02-16T13:25:21;6.43;;;2.70;;
3523;SDS011;1776;53.330;11.498;2024-02-16T13:27:46;5.63;;;2.60;;
3523;SDS011;1776;53.330;11.498;2024-02-16T13:30:11;3.23;;;2.83;;
3523;SDS011;1776;53.330;11.498;2024-02-16T13:32:37;3.43;;;2.23;;
3523;SDS011;1776;53.330;11.498;2024-02-16T13:35:05;3.63;;;2.30;;
3523;SDS011;1776;53.330;11.498;2024-02-16T13:37:31;5.27;;;2.23;;
3523;SDS011;1776;53.330;11.498;2024-02-16T13:39:56;6.37;;;2.97;;
3523;SDS011;1776;53.330;11.498;2024-02-16T13:42:21;3.90;;;3.00;;
3523;SDS011;1776;53.330;11.498;2024-02-16T13:44:47;3.00;;;2.70;;
3523;SDS011;1776;53.330;11.498;2024-02-16T13:47:12;4.00;;;2.37;;
3523;SDS011;1776;53.330;11.498;2024-02-16T13:49:37;4.10;;;2.50;;
3523;SDS011;1776;53.330;11.498;2024-02-16T13:52:03;4.27;;;2.53;;
3523;SDS011;1776;53.330;11.498;2024-02-16T13:54:28;3.17;;;2.30;;
3523;SDS011;1776;53.330;11.498;2024-02-16T13:56:54;3.70;;;2.80;;
3523;SDS011;1776;53.330;11.498;2024-02-16T13:59:19;3.70;;;2.93;;
3523;SDS011;1776;53.330;11.498;2024-02-16T14:01:44;3.77;;;2.37;;
3523;SDS011;1776;53.330;11.498;2024-02-16T14:04:10;3.57;;;2.23;;
3523;SDS011;1776;53.330;11.498;2024-02-16T14:06:36;3.13;;;2.50;;
3523;SDS011;1776;53.330;11.498;2024-02-16T14:09:01;5.73;;;2.93;;
3523;SDS011;1776;53.330;11.498;2024-02-16T14:11:33;4.43;;;2.50;;
3523;SDS011;1776;53.330;11.498;2024-02-16T14:13:59;9.13;;;2.80;;
3523;SDS011;1776;53.330;11.498;2024-02-16T14:16:25;6.67;;;2.87;;
3523;SDS011;1776;53.330;11.498;2024-02-16T14:18:50;4.30;;;2.20;;
3523;SDS011;1776;53.330;11.498;2024-02-16T14:21:17;6.67;;;2.53;;
3523;SDS011;1776;53.330;11.498;2024-02-16T14:23:42;4.20;;;2.60;;
3523;SDS011;1776;53.330;11.498;2024-02-16T14:26:08;5.20;;;2.60;;
3523;SDS011;1776;53.330;11.498;2024-02-16T14:28:35;6.23;;;2.73;;
3523;SDS011;1776;53.330;11.498;2024-02-16T14:31:00;7.03;;;2.83;;
3523;SDS011;1776;53.330;11.498;2024-02-16T14:33:25;3.17;;;2.87;;
3523;SDS011;1776;53.330;11.498;2024-02-16T14:35:51;2.87;;;2.10;;
3523;SDS011;1776;53.330;11.498;2024-02-16T14:38:16;7.00;;;2.50;;
3523;SDS011;1776;53.330;11.498;2024-02-16T14:40:41;4.50;;;2.43;;
3523;SDS011;1776;53.330;11.498;2024-02-16T14:43:07;4.30;;;2.80;;
3523;SDS011;1776;53.330;11.498;2024-02-16T14:45:33;6.73;;;2.60;;
3523;SDS011;1776;53.330;11.498;2024-02-16T14:47:58;3.10;;;2.77;;
3523;SDS011;1776;53.330;11.498;2024-02-16T14:50:23;7.00;;;3.00;;
3523;SDS011;1776;53.330;11.498;2024-02-16T14:52:49;7.50;;;2.57;;